createdAt,value
2023-05-01T00:09:43.215Z,1310.8595317725753
2023-05-01T00:17:00.735Z,1353.591973244147
2023-05-01T00:23:19.680Z,1277.8294314381271
2023-05-01T00:29:38.476Z,1232.1371237458195
2023-05-01T00:35:58.452Z,1322.638795986622
2023-05-01T00:42:17.386Z,1261.505016722408
2023-05-01T00:52:32.714Z,1259.036789297659
2023-05-01T00:58:52.119Z,1316.076923076923
2023-05-01T01:05:10.965Z,1311.8327759197325
2023-05-01T01:11:29.119Z,1363.5551839464883
2023-05-01T01:21:37.858Z,1319.0167224080267
2023-05-01T01:27:56.022Z,1351.4548494983278
2023-05-01T01:34:14.602Z,1445.3478260869565
2023-05-01T01:46:48.033Z,1383.6220735785953
2023-05-01T01:53:06.651Z,1417.284280936455
2023-05-01T01:59:24.771Z,1392.571906354515
2023-05-01T02:05:42.805Z,1385.7190635451504
2023-05-01T02:12:00.662Z,1348.7257525083612
2023-05-01T02:18:19.095Z,1384.494983277592
2023-05-01T02:24:37.267Z,1347.2307692307693
2023-05-01T02:30:55.647Z,1318.9464882943143
2023-05-01T02:41:38.057Z,1249.3846153846155
2023-05-01T02:47:56.653Z,1262.2775919732442
2023-05-01T02:54:14.851Z,1241.046822742475
2023-05-01T03:03:50.299Z,1585.0434782608695
2023-05-01T03:10:08.727Z,2686.464882943144
2023-05-01T03:16:27.429Z,3094.0334448160534
2023-05-01T03:22:45.834Z,2851.1739130434785
2023-05-01T03:31:03.317Z,2239.6153846153848
2023-05-01T03:37:21.705Z,1973.076923076923
2023-05-01T03:43:39.353Z,1593.943143812709
2023-05-01T03:49:59.009Z,1522.7759197324415
2023-05-01T03:56:17.554Z,1365.943143812709
2023-05-01T04:02:35.956Z,1370.7591973244148
2023-05-01T04:13:28.102Z,1313.3377926421404
2023-05-01T04:19:49.135Z,1305.1204013377926
2023-05-01T04:26:10.441Z,1298.28762541806
2023-05-01T04:32:31.347Z,1350.0
2023-05-01T04:38:52.210Z,1342.9966555183946
2023-05-01T04:45:12.987Z,1372.6053511705686
2023-05-01T04:51:33.477Z,1372.0836120401339
2023-05-01T04:57:54.564Z,1271.1772575250836
2023-05-01T05:11:06.447Z,1324.1739130434783
2023-05-01T05:17:28.778Z,1366.5451505016722
2023-05-01T05:23:50.360Z,1373.5785953177258
2023-05-01T05:41:27.545Z,1354.685618729097
2023-05-01T05:47:50.689Z,1332.6822742474917
2023-05-01T05:54:12.811Z,1399.0635451505016
2023-05-01T06:00:34.292Z,1354.2642140468226
2023-05-01T06:06:57.093Z,1265.6789297658863
2023-05-01T06:13:19.966Z,1284.020066889632
2023-05-01T06:19:42.391Z,1351.7257525083612
2023-05-01T06:26:32.333Z,1286.066889632107
2023-05-01T06:32:53.825Z,1260.5016722408027
2023-05-01T06:43:57.266Z,1248.561872909699
2023-05-01T06:50:20.371Z,1161.4113712374583
2023-05-01T06:56:42.366Z,1160.5785953177258
2023-05-01T07:03:05.945Z,1221.76254180602
2023-05-01T07:11:56.526Z,1131.963210702341
2023-05-01T07:18:19.058Z,1163.3177257525083
2023-05-01T07:31:15.042Z,1080.0903010033444
2023-05-01T07:38:44.946Z,1161.8628762541805
2023-05-01T07:57:12.986Z,981.8127090301003
2023-05-01T08:07:11.222Z,972.6622073578595
2023-05-01T08:13:31.789Z,998.2775919732442
2023-05-01T08:19:51.645Z,986.5585284280936
2023-05-01T08:33:35.045Z,1034.2976588628762
2023-05-01T08:39:55.575Z,1026.2809364548496
2023-05-01T08:46:16.225Z,1037.6789297658863
2023-05-01T08:52:36.160Z,1008.9030100334448
2023-05-01T08:58:56.013Z,1036.2742474916388
2023-05-01T09:05:17.030Z,1061.6989966555184
2023-05-01T09:14:29.719Z,1121.6789297658863
2023-05-01T09:20:49.834Z,1055.1471571906354
2023-05-01T09:30:00.852Z,1048.7859531772576
2023-05-01T09:44:15.156Z,1033.4448160535117
2023-05-01T09:53:11.327Z,1030.3344481605352
2023-05-01T12:59:22.609Z,639.2307692307693
2023-05-01T13:08:49.137Z,540.3110367892976
2023-05-01T13:15:11.229Z,581.4080267558528
2023-05-01T13:28:00.203Z,508.67558528428094
2023-05-01T13:34:34.457Z,477.7725752508361
2023-05-01T13:40:55.720Z,474.18060200668896
2023-05-01T13:47:17.300Z,477.7826086956522
2023-05-01T13:53:38.828Z,537.571906354515
2023-05-01T14:00:01.515Z,457.25418060200667
2023-05-01T14:06:22.822Z,458.2073578595318
2023-05-01T14:12:50.965Z,432.53177257525084
2023-05-01T14:19:14.413Z,438.4816053511706
2023-05-01T14:25:36.254Z,516.571906354515
2023-05-01T14:31:58.385Z,449.6488294314381
2023-05-01T14:38:19.400Z,501.0702341137124
2023-05-01T14:44:40.722Z,499.4448160535117
2023-05-01T14:51:02.002Z,503.67892976588627
2023-05-01T15:03:48.028Z,478.494983277592
2023-05-01T15:10:16.784Z,570.581939799331
2023-05-01T15:19:04.098Z,672.6220735785953
2023-05-01T15:27:05.614Z,837.9431438127091
2023-05-01T15:33:27.203Z,997.123745819398
2023-05-01T15:39:48.266Z,1083.0802675585285
2023-05-01T15:46:08.336Z,1046.5183946488294
2023-05-01T15:52:30.527Z,1012.7458193979933
2023-05-01T15:58:52.321Z,1050.5819397993312
2023-05-01T16:05:13.548Z,966.6421404682275
2023-05-01T16:15:28.928Z,871.3344481605351
2023-05-01T16:35:39.471Z,876.3010033444816
2023-05-01T16:42:00.374Z,879.9230769230769
2023-05-01T16:52:36.578Z,1011.371237458194
2023-05-01T17:03:30.111Z,1003.6454849498327
2023-05-01T17:10:54.056Z,928.5852842809364
2023-05-01T17:22:59.132Z,875.6086956521739
2023-05-01T17:29:19.724Z,855.3210702341137
2023-05-01T17:35:40.563Z,781.5551839464883
2023-05-01T17:47:10.338Z,789.2909698996656
2023-05-01T17:53:31.365Z,793.0133779264214
2023-05-01T17:59:53.288Z,742.9464882943143
2023-05-01T18:10:28.405Z,763.0936454849499
2023-05-01T18:25:57.861Z,627.561872909699
2023-05-01T18:32:19.263Z,585.0401337792642
2023-05-01T18:38:41.792Z,649.886287625418
2023-05-01T18:51:07.254Z,687.8829431438127
2023-05-01T18:57:28.944Z,656.0568561872909
2023-05-01T19:03:48.463Z,763.8461538461538
2023-05-01T19:13:11.875Z,967.0133779264214
2023-05-01T19:19:36.849Z,1082.257525083612
2023-05-01T19:26:04.270Z,823.2040133779265
2023-05-01T19:32:25.632Z,714.4515050167224
2023-05-01T19:38:48.077Z,771.4013377926422
2023-05-01T19:45:09.837Z,719.7491638795987
2023-05-01T19:57:28.426Z,2276.247491638796
2023-05-01T20:03:49.093Z,2387.989966555184
2023-05-01T20:23:45.832Z,1174.7357859531774
2023-05-01T20:34:34.202Z,885.3612040133779
2023-05-01T20:40:54.577Z,930.3913043478261
2023-05-01T20:47:19.124Z,922.5551839464883
2023-05-01T20:53:39.365Z,947.3478260869565
2023-05-01T21:00:01.694Z,900.38127090301
2023-05-01T21:07:32.283Z,915.2307692307693
2023-05-01T21:13:53.584Z,919.113712374582
2023-05-01T21:24:26.042Z,949.4849498327759
2023-05-01T21:34:14.232Z,963.4414715719064
2023-05-01T21:40:34.799Z,984.8829431438127
2023-05-01T21:46:56.846Z,1135.2943143812709
2023-05-01T21:53:17.026Z,1135.515050167224
2023-05-01T21:59:39.350Z,1134.6120401337794
2023-05-01T22:09:58.456Z,1194.3311036789298
2023-05-01T22:22:18.049Z,1465.2541806020067
2023-05-01T22:28:37.268Z,1566.2508361204013
2023-05-01T22:34:57.116Z,1638.361204013378
2023-05-01T22:42:25.343Z,1747.2240802675585
2023-05-01T22:48:45.740Z,1990.3846153846155
2023-05-01T22:56:12.310Z,2083.545150501672
2023-05-01T23:02:33.589Z,2144.9397993311036
2023-05-01T23:08:54.954Z,2266.685618729097
2023-05-01T23:15:14.619Z,2253.752508361204
2023-05-01T23:21:34.524Z,2203.4046822742475
2023-05-01T23:29:28.346Z,2223.401337792642
2023-05-01T23:38:17.449Z,2509.3244147157193
